Voorburg, Netherlands
Current Conditions -  °F | °C
As of 3:25 PM on Sunday 23 Nov 2014 (Local Time) from EHRD Reporting Station
Clear Clear  
Wind Chill: 57°   Ceiling: Unl
Heat Index: 57°   Visibility: 6mi
Dew Point: 52°   Wind: 8mph
Humidity: 82%   Direction: 170°S
Pressure: 29.91"   Gusts: NA
Location:  52.07°N, 4.36°E
Report Text: EHRD 231425Z AUTO 17007KT 9999 NSC 14/11 Q1013 NOSIG
Loading
Personal Weather Stations






























Interactive Weather Map New forecast layout! Learn more

10-Day Weather Forecast

Advertisements
Track Severe Weather on mobile